Wetterdaten: Woche 02.05.16 - 08.05.16 (KW18)
Datum Zeit Temp. A. Feuchte A. Luftdruck Regen Wind Richtung Taupunkt Windchill Windben
02.05.2016 00:00 14,0 C 66 % 1017,1 hPa 0,0 l/m 0,8 km/h N 7,7 C 14,0 C 6,4 km/h
02.05.2016 01:00 13,3 C 67 % 1017,0 hPa 0,0 l/m 1,1 km/h N 7,2 C 13,3 C 7,2 km/h
02.05.2016 02:00 12,6 C 68 % 1016,9 hPa 0,0 l/m 1,8 km/h N 6,8 C 12,6 C 8,0 km/h
02.05.2016 03:00 12,2 C 69 % 1017,1 hPa 0,0 l/m 1,2 km/h N 6,7 C 12,2 C 7,6 km/h
02.05.2016 04:00 11,7 C 73 % 1017,1 hPa 0,0 l/m 1,7 km/h N 7,0 C 11,7 C 9,1 km/h
02.05.2016 05:00 11,3 C 73 % 1017,4 hPa 0,0 l/m 2,8 km/h N 6,6 C 11,3 C 9,6 km/h
02.05.2016 06:00 10,9 C 73 % 1017,6 hPa 0,0 l/m 4,9 km/h N 6,3 C 10,9 C 14,9 km/h
02.05.2016 07:00 10,9 C 75 % 1017,9 hPa 0,0 l/m 6,4 km/h N 6,7 C 10,8 C 17,3 km/h
02.05.2016 08:00 11,3 C 75 % 1018,1 hPa 0,0 l/m 7,2 km/h N 7,1 C 10,6 C 16,9 km/h
02.05.2016 09:00 11,4 C 76 % 1018,2 hPa 0,0 l/m 5,5 km/h N 7,3 C 11,4 C 16,5 km/h
02.05.2016 10:00 13,0 C 74 % 1018,0 hPa 0,0 l/m 9,1 km/h N 8,4 C 11,4 C 21,3 km/h
02.05.2016 11:00 14,3 C 70 % 1018,0 hPa 0,0 l/m 7,8 km/h N 8,9 C 13,3 C 19,7 km/h
02.05.2016 12:00 14,6 C 71 % 1017,5 hPa 0,0 l/m 6,3 km/h N 9,3 C 14,4 C 17,7 km/h
02.05.2016 13:00 14,9 C 70 % 1016,9 hPa 0,0 l/m 9,1 km/h N 9,6 C 13,5 C 20,5 km/h
02.05.2016 14:00 15,4 C 69 % 1016,4 hPa 0,0 l/m 8,3 km/h N 9,7 C 14,3 C 21,3 km/h
02.05.2016 15:00 16,6 C 66 % 1015,9 hPa 0,0 l/m 9,8 km/h N 10,3 C 15,0 C 22,5 km/h
02.05.2016 16:00 17,5 C 64 % 1015,5 hPa 0,3 l/m 8,0 km/h N 10,6 C 16,7 C 22,1 km/h
02.05.2016 17:00 16,4 C 62 % 1015,6 hPa 0,0 l/m 5,0 km/h N 9,1 C 16,4 C 17,7 km/h
02.05.2016 18:00 15,4 C 66 % 1015,9 hPa 0,0 l/m 3,9 km/h N 9,0 C 15,3 C 13,3 km/h
02.05.2016 19:00 14,7 C 72 % 1016,1 hPa 0,5 l/m 0,7 km/h N 9,6 C 14,7 C 5,2 km/h
02.05.2016 20:00 13,7 C 78 % 1016,2 hPa 0,0 l/m 0,8 km/h N 9,9 C 13,7 C 5,2 km/h
02.05.2016 21:00 13,5 C 77 % 1015,9 hPa 0,0 l/m 6,3 km/h N 9,6 C 13,4 C 16,9 km/h
02.05.2016 22:00 13,2 C 77 % 1015,9 hPa 0,0 l/m 5,0 km/h N 9,3 C 13,2 C 11,7 km/h
02.05.2016 23:00 12,7 C 78 % 1015,9 hPa 0,0 l/m 3,4 km/h N 9,0 C 12,7 C 10,1 km/h
03.05.2016 00:00 12,7 C 77 % 1015,8 hPa 0,0 l/m 5,3 km/h N 8,7 C 12,7 C 13,7 km/h
03.05.2016 01:00 12,6 C 76 % 1015,5 hPa 0,0 l/m 6,3 km/h N 8,5 C 12,5 C 16,1 km/h
03.05.2016 02:00 12,4 C 76 % 1015,2 hPa 0,0 l/m 6,1 km/h N 8,3 C 12,4 C 15,3 km/h
03.05.2016 03:00 12,1 C 75 % 1014,8 hPa 0,0 l/m 6,2 km/h N 7,9 C 12,0 C 17,7 km/h
03.05.2016 04:00 11,8 C 76 % 1014,8 hPa 0,0 l/m 4,7 km/h N 7,7 C 11,8 C 14,1 km/h
03.05.2016 05:00 11,5 C 77 % 1014,5 hPa 0,0 l/m 5,3 km/h N 7,5 C 11,5 C 15,3 km/h
03.05.2016 06:00 11,6 C 77 % 1014,4 hPa 0,0 l/m 6,2 km/h N 7,7 C 11,5 C 16,9 km/h
03.05.2016 07:00 12,2 C 76 % 1014,6 hPa 0,0 l/m 8,3 km/h N 8,0 C 11,0 C 20,9 km/h
03.05.2016 08:00 12,9 C 77 % 1014,8 hPa 0,0 l/m 10,0 km/h N 8,8 C 10,8 C 22,1 km/h
03.05.2016 09:00 12,7 C 78 % 1014,9 hPa 0,0 l/m 11,4 km/h N 8,9 C 9,9 C 24,5 km/h
03.05.2016 10:00 13,5 C 76 % 1014,8 hPa 0,0 l/m 13,0 km/h N 9,3 C 10,2 C 29,4 km/h
03.05.2016 11:00 13,8 C 73 % 1014,7 hPa 0,0 l/m 11,6 km/h N 9,0 C 11,1 C 25,8 km/h
03.05.2016 12:00 14,3 C 70 % 1014,2 hPa 0,0 l/m 10,3 km/h N 9,0 C 12,2 C 23,3 km/h
03.05.2016 13:00 15,4 C 67 % 1013,6 hPa 0,0 l/m 9,2 km/h N 9,4 C 14,0 C 22,9 km/h
03.05.2016 14:00 16,5 C 62 % 1012,8 hPa 0,0 l/m 9,0 km/h N 9,1 C 15,2 C 21,3 km/h
03.05.2016 15:00 16,5 C 61 % 1012,4 hPa 0,0 l/m 11,2 km/h N 8,9 C 14,3 C 24,1 km/h
03.05.2016 16:00 16,2 C 62 % 1012,5 hPa 0,0 l/m 11,3 km/h N 8,8 C 14,0 C 25,8 km/h
03.05.2016 17:00 15,4 C 65 % 1012,4 hPa 0,0 l/m 8,0 km/h N 8,7 C 14,6 C 19,7 km/h
03.05.2016 18:00 15,4 C 66 % 1012,2 hPa 0,0 l/m 7,1 km/h N 9,0 C 15,1 C 16,5 km/h
03.05.2016 19:00 14,9 C 65 % 1012,5 hPa 0,0 l/m 6,5 km/h N 8,5 C 14,7 C 15,7 km/h
03.05.2016 20:00 14,4 C 62 % 1013,2 hPa 0,0 l/m 8,5 km/h N 7,2 C 13,2 C 22,9 km/h
03.05.2016 21:00 13,8 C 63 % 1014,0 hPa 0,0 l/m 7,4 km/h N 6,9 C 13,1 C 19,7 km/h
03.05.2016 22:00 11,8 C 75 % 1014,7 hPa 1,0 l/m 11,0 km/h N 7,4 C 9,0 C 27,8 km/h
03.05.2016 23:00 10,5 C 82 % 1014,9 hPa 3,6 l/m 13,4 km/h N 7,5 C 6,4 C 30,2 km/h
04.05.2016 00:00 10,4 C 82 % 1015,0 hPa 0,3 l/m 10,9 km/h N 7,5 C 7,7 C 25,8 km/h
04.05.2016 01:00 10,6 C 82 % 1015,1 hPa 0,0 l/m 11,2 km/h N 7,6 C 7,6 C 24,1 km/h
04.05.2016 02:00 10,6 C 82 % 1015,3 hPa 0,8 l/m 8,6 km/h N 7,6 C 9,2 C 18,9 km/h
04.05.2016 03:00 10,6 C 82 % 1015,5 hPa 0,0 l/m 9,9 km/h N 7,6 C 8,2 C 24,5 km/h
04.05.2016 04:00 10,5 C 82 % 1016,3 hPa 0,8 l/m 11,0 km/h N 7,6 C 7,7 C 26,5 km/h
04.05.2016 05:00 10,0 C 83 % 1016,8 hPa 1,0 l/m 13,6 km/h N 7,2 C 5,7 C 28,6 km/h
04.05.2016 06:00 9,4 C 83 % 1017,5 hPa 0,3 l/m 13,7 km/h N 6,7 C 5,1 C 33,4 km/h
04.05.2016 07:00 9,0 C 84 % 1018,2 hPa 1,6 l/m 17,4 km/h N 6,4 C 3,0 C 35,0 km/h
04.05.2016 08:00 8,8 C 83 % 1019,0 hPa 0,5 l/m 15,4 km/h N 6,0 C 3,5 C 35,4 km/h
04.05.2016 09:00 8,6 C 82 % 1020,0 hPa 0,3 l/m 15,1 km/h N 5,7 C 3,4 C 34,2 km/h
04.05.2016 10:00 8,3 C 82 % 1020,6 hPa 0,3 l/m 15,4 km/h N 5,4 C 2,9 C 35,0 km/h
04.05.2016 11:00 8,4 C 82 % 1020,9 hPa 0,3 l/m 16,0 km/h N 5,5 C 2,8 C 34,2 km/h
04.05.2016 12:00 8,7 C 80 % 1021,4 hPa 0,0 l/m 15,2 km/h N 5,4 C 3,5 C 34,2 km/h
04.05.2016 13:00 9,5 C 79 % 1021,3 hPa 0,0 l/m 17,6 km/h N 6,0 C 3,6 C 40,2 km/h
04.05.2016 14:00 10,4 C 76 % 1021,5 hPa 0,0 l/m 17,7 km/h N 6,4 C 4,6 C 37,8 km/h
04.05.2016 15:00 10,6 C 76 % 1021,5 hPa 0,0 l/m 18,1 km/h N 6,4 C 4,7 C 38,2 km/h
04.05.2016 16:00 10,3 C 76 % 1021,8 hPa 0,0 l/m 17,1 km/h N 6,3 C 4,6 C 39,4 km/h
04.05.2016 17:00 9,8 C 77 % 1022,3 hPa 0,0 l/m 17,5 km/h N 6,0 C 3,9 C 36,6 km/h
04.05.2016 18:00 9,9 C 79 % 1022,8 hPa 0,0 l/m 15,2 km/h N 6,4 C 5,0 C 35,4 km/h
04.05.2016 19:00 9,4 C 80 % 1023,4 hPa 0,0 l/m 14,8 km/h N 6,0 C 4,5 C 31,8 km/h
04.05.2016 20:00 9,1 C 80 % 1023,6 hPa 0,0 l/m 14,3 km/h N 5,8 C 4,4 C 33,8 km/h
04.05.2016 21:00 9,0 C 80 % 1024,3 hPa 0,0 l/m 14,9 km/h N 5,7 C 4,0 C 31,0 km/h
04.05.2016 22:00 8,9 C 80 % 1024,6 hPa 0,0 l/m 14,8 km/h N 5,6 C 3,9 C 31,4 km/h
04.05.2016 23:00 8,9 C 80 % 1025,0 hPa 0,0 l/m 12,1 km/h N 5,6 C 5,2 C 27,4 km/h
05.05.2016 00:00 8,5 C 81 % 1024,9 hPa 0,0 l/m 13,5 km/h N 5,5 C 4,1 C 29,8 km/h
05.05.2016 01:00 8,1 C 82 % 1024,8 hPa 0,0 l/m 11,2 km/h N 5,3 C 4,9 C 24,1 km/h
05.05.2016 02:00 8,3 C 82 % 1024,7 hPa 0,0 l/m 11,4 km/h N 5,3 C 4,9 C 25,7 km/h
05.05.2016 03:00 8,3 C 82 % 1024,6 hPa 0,0 l/m 10,4 km/h N 5,4 C 5,5 C 23,7 km/h
05.05.2016 04:00 8,3 C 82 % 1024,5 hPa 0,0 l/m 10,6 km/h N 5,4 C 5,3 C 23,3 km/h
05.05.2016 05:00 8,2 C 82 % 1024,8 hPa 0,0 l/m 10,4 km/h N 5,3 C 5,4 C 22,9 km/h
05.05.2016 06:00 8,1 C 83 % 1024,9 hPa 0,3 l/m 9,3 km/h N 5,4 C 6,0 C 21,3 km/h
05.05.2016 07:00 8,3 C 83 % 1025,0 hPa 0,0 l/m 8,4 km/h N 5,6 C 6,8 C 20,5 km/h
05.05.2016 08:00 8,6 C 83 % 1025,3 hPa 0,0 l/m 9,4 km/h N 5,9 C 6,5 C 20,9 km/h
05.05.2016 09:00 9,3 C 82 % 1025,3 hPa 0,0 l/m 10,7 km/h N 6,3 C 6,4 C 23,7 km/h
05.05.2016 10:00 10,0 C 81 % 1025,4 hPa 0,0 l/m 10,7 km/h N 6,9 C 7,3 C 24,1 km/h
05.05.2016 11:00 11,1 C 79 % 1025,4 hPa 0,3 l/m 9,7 km/h N 7,6 C 9,0 C 24,1 km/h
05.05.2016 12:00 11,6 C 79 % 1025,3 hPa 0,0 l/m 11,5 km/h N 8,0 C 8,6 C 24,5 km/h
05.05.2016 13:00 12,5 C 77 % 1024,7 hPa 0,0 l/m 12,4 km/h N 8,6 C 9,2 C 24,9 km/h
05.05.2016 14:00 14,0 C 73 % 1024,0 hPa 0,0 l/m 9,3 km/h N 9,3 C 12,4 C 21,7 km/h
05.05.2016 15:00 14,8 C 71 % 1023,4 hPa 0,0 l/m 9,9 km/h N 9,6 C 12,9 C 24,1 km/h
05.05.2016 16:00 15,6 C 70 % 1022,7 hPa 0,0 l/m 10,2 km/h N 10,0 C 13,7 C 21,7 km/h
05.05.2016 17:00 16,3 C 68 % 1022,3 hPa 0,0 l/m 7,7 km/h N 10,4 C 15,6 C 18,5 km/h
05.05.2016 18:00 16,9 C 67 % 1021,7 hPa 0,0 l/m 6,6 km/h N 10,7 C 16,7 C 16,9 km/h
05.05.2016 19:00 16,4 C 68 % 1021,6 hPa 0,0 l/m 5,2 km/h N 10,5 C 16,4 C 14,9 km/h
05.05.2016 20:00 14,9 C 72 % 1021,8 hPa 0,0 l/m 2,8 km/h N 9,8 C 14,9 C 8,4 km/h
05.05.2016 21:00 13,9 C 75 % 1021,9 hPa 0,0 l/m 1,1 km/h N 9,5 C 13,9 C 7,6 km/h
05.05.2016 22:00 13,1 C 75 % 1022,0 hPa 0,0 l/m 0,1 km/h N 8,8 C 13,1 C 1,6 km/h
05.05.2016 23:00 11,5 C 79 % 1022,0 hPa 0,0 l/m 0,0 km/h N 7,9 C 11,5 C 0,4 km/h
06.05.2016 00:00 10,7 C 82 % 1021,9 hPa 0,0 l/m 0,0 km/h N 7,6 C 10,7 C 0,8 km/h
06.05.2016 01:00 10,3 C 82 % 1021,5 hPa 0,0 l/m 0,0 km/h N 7,3 C 10,3 C 1,6 km/h
06.05.2016 02:00 9,6 C 83 % 1021,2 hPa 0,0 l/m 0,0 km/h N 6,8 C 9,6 C 0,0 km/h
06.05.2016 03:00 9,1 C 83 % 1020,9 hPa 0,0 l/m 0,0 km/h N 6,4 C 9,1 C 1,6 km/h
06.05.2016 04:00 9,0 C 84 % 1020,5 hPa 0,0 l/m 0,0 km/h N 6,4 C 9,0 C 0,8 km/h
06.05.2016 05:00 8,6 C 83 % 1020,4 hPa 0,0 l/m 0,0 km/h N 5,9 C 8,6 C 0,4 km/h
06.05.2016 06:00 8,5 C 83 % 1020,5 hPa 0,0 l/m 0,0 km/h N 5,8 C 8,5 C 0,8 km/h
06.05.2016 07:00 10,1 C 82 % 1020,5 hPa 0,0 l/m 0,0 km/h N 7,1 C 10,1 C 1,6 km/h
06.05.2016 08:00 12,9 C 81 % 1020,4 hPa 0,0 l/m 0,3 km/h N 9,6 C 12,9 C 3,6 km/h
06.05.2016 09:00 16,4 C 70 % 1020,1 hPa 0,0 l/m 0,2 km/h N 10,8 C 16,4 C 3,6 km/h
06.05.2016 10:00 18,8 C 63 % 1019,8 hPa 0,0 l/m 0,7 km/h N 11,5 C 18,8 C 6,4 km/h
06.05.2016 11:00 20,3 C 56 % 1019,6 hPa 0,0 l/m 1,0 km/h N 11,3 C 20,3 C 7,2 km/h
06.05.2016 12:00 21,2 C 53 % 1019,3 hPa 0,0 l/m 1,3 km/h N 11,3 C 21,2 C 8,6 km/h
06.05.2016 13:00 22,2 C 49 % 1018,7 hPa 0,0 l/m 1,6 km/h N 10,8 C 22,2 C 11,3 km/h
06.05.2016 14:00 23,0 C 45 % 1018,2 hPa 0,0 l/m 1,6 km/h N 10,4 C 23,0 C 8,9 km/h
06.05.2016 15:00 22,3 C 42 % 1017,3 hPa 0,0 l/m 1,6 km/h N 8,7 C 22,3 C 11,3 km/h
06.05.2016 16:00 21,3 C 44 % 1016,8 hPa 0,0 l/m 1,6 km/h N 8,4 C 21,3 C 8,9 km/h
06.05.2016 17:00 20,8 C 45 % 1016,4 hPa 0,0 l/m 1,6 km/h N 8,3 C 20,8 C 8,1 km/h
06.05.2016 18:00 21,0 C 44 % 1015,9 hPa 0,0 l/m 0,0 km/h N 8,3 C 21,0 C 7,2 km/h
06.05.2016 19:00 21,8 C 41 % 1015,7 hPa 0,0 l/m 0,0 km/h N 7,8 C 21,8 C 2,4 km/h
06.05.2016 20:00 19,8 C 47 % 1015,7 hPa 0,0 l/m 0,0 km/h N 8,1 C 19,8 C 0,8 km/h
06.05.2016 21:00 15,3 C 62 % 1016,3 hPa 0,0 l/m 0,0 km/h N 8,0 C 15,3 C 1,6 km/h
06.05.2016 22:00 13,0 C 69 % 1016,3 hPa 0,0 l/m 0,0 km/h N 7,4 C 13,0 C 1,6 km/h
06.05.2016 23:00 11,6 C 75 % 1016,2 hPa 0,0 l/m 0,0 km/h N 7,3 C 11,6 C 3,2 km/h
07.05.2016 00:00 10,7 C 77 % 1016,0 hPa 0,0 l/m 0,0 km/h N 6,8 C 10,7 C 1,6 km/h
07.05.2016 01:00 9,6 C 79 % 1016,0 hPa 0,0 l/m 0,0 km/h N 6,1 C 9,6 C 0,8 km/h
07.05.2016 02:00 9,0 C 81 % 1015,5 hPa 0,0 l/m 0,0 km/h N 5,9 C 9,0 C 3,2 km/h
07.05.2016 03:00 8,4 C 82 % 1015,3 hPa 0,0 l/m 0,0 km/h N 5,6 C 8,4 C 1,6 km/h
07.05.2016 04:00 7,9 C 82 % 1015,2 hPa 0,0 l/m 0,0 km/h N 5,1 C 7,9 C 0,8 km/h
07.05.2016 05:00 7,3 C 83 % 1015,1 hPa 0,0 l/m 0,0 km/h N 4,6 C 7,3 C 0,0 km/h
07.05.2016 06:00 7,1 C 83 % 1015,3 hPa 0,0 l/m 0,0 km/h N 4,4 C 7,1 C 0,0 km/h
07.05.2016 07:00 8,3 C 83 % 1015,5 hPa 0,0 l/m 0,0 km/h N 5,5 C 8,3 C 0,0 km/h
07.05.2016 08:00 12,2 C 81 % 1015,6 hPa 0,0 l/m 0,1 km/h N 9,0 C 12,2 C 3,2 km/h
07.05.2016 09:00 17,1 C 64 % 1015,5 hPa 0,0 l/m 0,4 km/h N 10,2 C 17,1 C 3,6 km/h
07.05.2016 10:00 19,9 C 54 % 1015,4 hPa 0,0 l/m 0,7 km/h N 10,1 C 19,9 C 7,7 km/h
07.05.2016 11:00 20,4 C 56 % 1015,4 hPa 0,0 l/m 1,2 km/h N 11,3 C 20,4 C 8,9 km/h
07.05.2016 12:00 21,8 C 53 % 1014,8 hPa 0,0 l/m 1,1 km/h N 11,6 C 21,8 C 8,8 km/h
07.05.2016 13:00 22,5 C 48 % 1014,2 hPa 0,0 l/m 1,9 km/h N 10,9 C 22,5 C 10,5 km/h
07.05.2016 14:00 22,6 C 46 % 1014,1 hPa 0,0 l/m 2,3 km/h N 10,4 C 22,6 C 11,7 km/h
07.05.2016 15:00 22,5 C 43 % 1013,6 hPa 0,0 l/m 1,1 km/h N 9,1 C 22,5 C 6,8 km/h
07.05.2016 16:00 21,8 C 44 % 1013,2 hPa 0,0 l/m 1,3 km/h N 8,8 C 21,8 C 7,6 km/h
07.05.2016 17:00 21,8 C 43 % 1012,9 hPa 0,0 l/m 1,0 km/h N 8,5 C 21,8 C 6,8 km/h
07.05.2016 18:00 22,0 C 41 % 1012,5 hPa 0,0 l/m 0,3 km/h N 8,2 C 22,0 C 4,4 km/h
07.05.2016 19:00 21,0 C 45 % 1012,6 hPa 0,0 l/m 0,1 km/h N 8,5 C 21,0 C 0,8 km/h
07.05.2016 20:00 18,2 C 55 % 1012,8 hPa 0,0 l/m 0,2 km/h N 9,1 C 18,2 C 2,0 km/h
07.05.2016 21:00 16,8 C 55 % 1013,3 hPa 0,0 l/m 0,7 km/h N 7,8 C 16,8 C 8,4 km/h
07.05.2016 22:00 16,4 C 54 % 1013,3 hPa 0,0 l/m 0,4 km/h N 7,0 C 16,4 C 4,4 km/h
07.05.2016 23:00 14,5 C 58 % 1013,4 hPa 0,0 l/m 0,0 km/h N 6,2 C 14,5 C 0,4 km/h
08.05.2016 00:00 12,5 C 65 % 1013,8 hPa 0,0 l/m 0,1 km/h N 6,1 C 12,5 C 2,8 km/h
08.05.2016 01:00 11,6 C 69 % 1014,2 hPa 0,0 l/m 0,0 km/h N 6,0 C 11,6 C 0,4 km/h
08.05.2016 02:00 10,0 C 75 % 1014,7 hPa 0,0 l/m 0,0 km/h N 5,7 C 10,0 C 0,0 km/h
08.05.2016 03:00 8,8 C 79 % 1014,8 hPa 0,0 l/m 0,0 km/h N 5,3 C 8,8 C 0,0 km/h
08.05.2016 04:00 8,0 C 82 % 1014,9 hPa 0,0 l/m 0,0 km/h N 5,0 C 8,0 C 0,0 km/h
08.05.2016 05:00 7,5 C 83 % 1015,2 hPa 0,0 l/m 0,0 km/h N 4,7 C 7,5 C 0,0 km/h
08.05.2016 06:00 7,5 C 83 % 1015,6 hPa 0,0 l/m 0,0 km/h N 4,8 C 7,5 C 0,4 km/h
08.05.2016 07:00 9,4 C 82 % 1016,1 hPa 0,0 l/m 0,0 km/h N 6,5 C 9,4 C 0,8 km/h
08.05.2016 08:00 12,6 C 82 % 1016,4 hPa 0,0 l/m 0,8 km/h N 9,5 C 12,6 C 6,8 km/h
08.05.2016 09:00 16,0 C 72 % 1016,5 hPa 0,0 l/m 1,4 km/h N 11,0 C 16,0 C 11,6 km/h
08.05.2016 10:00 18,5 C 64 % 1016,5 hPa 0,0 l/m 1,2 km/h N 11,4 C 18,5 C 6,4 km/h
08.05.2016 11:00 20,0 C 58 % 1016,5 hPa 0,0 l/m 1,5 km/h N 11,3 C 20,0 C 8,0 km/h
08.05.2016 12:00 20,7 C 54 % 1016,2 hPa 0,0 l/m 1,8 km/h N 11,0 C 20,7 C 9,3 km/h
08.05.2016 13:00 20,5 C 53 % 1016,2 hPa 0,0 l/m 2,0 km/h N 10,7 C 20,5 C 10,5 km/h
08.05.2016 14:00 21,1 C 50 % 1015,9 hPa 0,0 l/m 2,4 km/h N 10,2 C 21,1 C 9,7 km/h
08.05.2016 15:00 20,6 C 49 % 1015,7 hPa 0,0 l/m 1,0 km/h N 9,6 C 20,6 C 9,6 km/h
08.05.2016 16:00 19,5 C 51 % 1015,7 hPa 0,0 l/m 1,5 km/h N 9,0 C 19,5 C 10,9 km/h
08.05.2016 17:00 19,8 C 49 % 1015,5 hPa 0,0 l/m 1,8 km/h N 8,7 C 19,8 C 10,5 km/h
08.05.2016 18:00 20,2 C 47 % 1015,4 hPa 0,0 l/m 1,8 km/h N 8,6 C 20,2 C 7,6 km/h
08.05.2016 19:00 20,0 C 48 % 1015,2 hPa 0,0 l/m 0,5 km/h N 8,5 C 20,0 C 3,6 km/h
08.05.2016 20:00 18,0 C 52 % 1015,6 hPa 0,0 l/m 0,0 km/h N 8,1 C 18,0 C 0,0 km/h
08.05.2016 21:00 14,3 C 64 % 1016,2 hPa 0,0 l/m 0,0 km/h N 7,6 C 14,3 C 0,0 km/h
08.05.2016 22:00 12,0 C 74 % 1016,5 hPa 0,0 l/m 0,0 km/h N 7,4 C 12,0 C 0,0 km/h
08.05.2016 23:00 10,7 C 78 % 1016,7 hPa 0,0 l/m 0,0 km/h N 7,0 C 10,7 C 0,0 km/h
Min-Datum _ 07.05.16 06.05.16 03.05.16 - 02.05.16 - 07.05.16 04.05.16 05.05.16
_ Min-Zeit 05:30 15:30 18:00 - 19:45 - 06:00 11:00 22:15
Minimum _ 7,1 C 40 % 1012,2 hPa - 0,0 km/h - 4,2 C 1,5 C 0,0 km/h
Max-Datum _ 06.05.16 04.05.16 05.05.16 03.05.16 04.05.16 - 07.05.16 06.05.16 04.05.16
_ Max-Zeit 14:30 07:30 10:00 23:15 14:15 - 11:45 14:00 16:00
Maximum _ 23,2 C 86 % 1025,6 hPa 3,6 l/m 22,8 km/h
N
- 12,2 C 23,1 C 46,7 km/h
N
Durchschnitt _ 13,5 C 70 % 1017,7 hPa #12,0 l/m 5,5 km/h N 7,9 C 12,4 C 14,3 km/h